createdAt,value
2018-12-14T00:00:13.557Z,1.52
2018-12-14T00:01:13.743Z,1.56
2018-12-14T00:02:14.018Z,1.63
2018-12-14T00:03:13.890Z,1.6
2018-12-14T00:04:13.684Z,1.61
2018-12-14T00:05:13.956Z,1.64
2018-12-14T00:06:13.676Z,1.58
2018-12-14T00:07:13.496Z,1.6
2018-12-14T00:08:14.020Z,1.61
2018-12-14T00:09:13.671Z,1.48
2018-12-14T00:10:13.845Z,1.58
2018-12-14T00:11:13.424Z,1.5
2018-12-14T00:12:13.519Z,1.66
2018-12-14T00:13:13.457Z,1.58
2018-12-14T00:14:13.554Z,1.6
2018-12-14T00:15:13.898Z,1.68
2018-12-14T00:16:14.183Z,1.5
2018-12-14T00:17:14.104Z,1.4
2018-12-14T00:18:14.300Z,1.5
2018-12-14T00:19:13.785Z,1.46
2018-12-14T00:20:18.089Z,1.39
2018-12-14T00:21:14.062Z,1.42
2018-12-14T00:22:14.125Z,1.43
2018-12-14T00:23:13.504Z,1.46
2018-12-14T00:24:13.779Z,1.48
2018-12-14T00:25:13.928Z,1.52
2018-12-14T00:26:12.942Z,1.58
2018-12-14T00:27:12.875Z,1.46
2018-12-14T00:28:12.879Z,1.48
2018-12-14T00:29:12.876Z,1.45
2018-12-14T00:30:12.861Z,1.46
2018-12-14T00:31:12.905Z,1.46
2018-12-14T00:32:12.865Z,1.5
2018-12-14T00:33:12.975Z,1.39
2018-12-14T00:34:12.889Z,1.56
2018-12-14T00:35:13.000Z,1.63
2018-12-14T00:36:12.907Z,1.45
2018-12-14T00:37:12.934Z,1.52
2018-12-14T00:38:13.028Z,1.56
2018-12-14T00:39:12.994Z,1.6
2018-12-14T00:40:12.872Z,1.52
2018-12-14T00:41:12.935Z,1.61
2018-12-14T00:42:12.961Z,1.57
2018-12-14T00:43:12.968Z,1.48
2018-12-14T00:44:12.911Z,1.57
2018-12-14T00:45:12.940Z,1.45
2018-12-14T00:46:13.037Z,1.46
2018-12-14T00:47:13.086Z,1.48
2018-12-14T00:48:12.866Z,1.43
2018-12-14T00:49:12.903Z,1.48
2018-12-14T00:50:13.052Z,1.38
2018-12-14T00:51:12.971Z,1.46
2018-12-14T00:52:12.894Z,1.52
2018-12-14T00:53:12.948Z,1.46
2018-12-14T00:54:12.990Z,1.45
2018-12-14T00:55:12.859Z,1.56
2018-12-14T00:56:12.932Z,1.43
2018-12-14T00:57:12.910Z,1.43
2018-12-14T00:58:12.943Z,1.31
2018-12-14T00:59:12.877Z,1.39
2018-12-14T01:00:13.028Z,1.32
2018-12-14T01:01:12.922Z,1.36
2018-12-14T01:02:12.918Z,1.38
2018-12-14T01:03:13.009Z,1.3
2018-12-14T01:04:12.927Z,1.38
2018-12-14T01:05:12.968Z,1.34
2018-12-14T01:06:13.644Z,1.42
2018-12-14T01:07:13.006Z,1.32
2018-12-14T01:08:13.048Z,1.4
2018-12-14T01:09:12.992Z,1.46
2018-12-14T01:10:13.013Z,1.39
2018-12-14T01:11:13.015Z,1.39
2018-12-14T01:12:12.918Z,1.48
2018-12-14T01:13:12.980Z,1.38
2018-12-14T01:14:12.990Z,1.34
2018-12-14T01:15:13.026Z,1.4
2018-12-14T01:16:12.974Z,1.42
2018-12-14T01:17:47.728Z,1.46
2018-12-14T01:18:12.943Z,1.3
2018-12-14T01:19:13.088Z,1.45
2018-12-14T01:20:13.027Z,1.27
2018-12-14T01:24:42.403Z,1.42
2018-12-14T01:25:42.922Z,1.48
2018-12-14T01:26:42.115Z,1.36
2018-12-14T01:27:42.059Z,1.32
2018-12-14T01:28:42.129Z,1.45
2018-12-14T01:33:11.235Z,1.38
2018-12-14T01:34:11.242Z,1.25
2018-12-14T01:35:11.223Z,1.34
2018-12-14T01:36:11.254Z,1.45
2018-12-14T01:37:11.262Z,1.4
2018-12-14T01:38:11.270Z,1.42
2018-12-14T01:39:11.244Z,1.39
2018-12-14T01:40:11.211Z,1.38
2018-12-14T01:41:11.293Z,1.32
2018-12-14T01:42:11.277Z,1.36
2018-12-14T01:43:11.277Z,1.46
2018-12-14T01:44:11.207Z,1.49
2018-12-14T01:49:28.567Z,1.5
2018-12-14T01:49:40.861Z,1.42
2018-12-14T01:50:40.837Z,1.46
2018-12-14T01:51:40.741Z,1.43
2018-12-14T01:52:40.822Z,1.3
2018-12-14T01:53:40.786Z,1.42
2018-12-14T01:54:40.864Z,1.42
2018-12-14T01:55:40.842Z,1.25
2018-12-14T01:56:40.778Z,1.28
2018-12-14T01:57:40.807Z,1.43
2018-12-14T01:58:40.843Z,1.28
2018-12-14T01:59:40.867Z,1.28
2018-12-14T02:00:40.874Z,1.39
2018-12-14T02:01:40.840Z,1.34
2018-12-14T02:02:40.747Z,1.4
2018-12-14T02:03:40.855Z,1.43
2018-12-14T02:04:40.859Z,1.34
2018-12-14T02:09:57.487Z,1.22
2018-12-14T02:10:09.636Z,1.31
2018-12-14T02:11:09.573Z,1.18
2018-12-14T02:12:14.188Z,1.21
2018-12-14T02:13:09.539Z,1.28
2018-12-14T02:14:10.551Z,1.24
2018-12-14T02:15:09.563Z,1.36
2018-12-14T02:16:09.604Z,1.32
2018-12-14T02:17:09.580Z,1.22
2018-12-14T02:18:09.542Z,1.24
2018-12-14T02:19:09.597Z,1.24
2018-12-14T02:20:09.626Z,1.25
2018-12-14T02:21:09.622Z,1.25
2018-12-14T02:22:09.589Z,1.27
2018-12-14T02:23:09.596Z,1.14
2018-12-14T02:24:09.623Z,1.3
2018-12-14T02:25:09.618Z,1.25
2018-12-14T02:26:09.918Z,1.18
2018-12-14T02:27:09.570Z,1.21
2018-12-14T02:28:09.658Z,1.27
2018-12-14T02:29:09.530Z,1.24
2018-12-14T02:30:09.537Z,1.27
2018-12-14T02:31:09.640Z,1.25
2018-12-14T02:32:09.547Z,1.32
2018-12-14T02:33:09.591Z,1.31
2018-12-14T02:34:09.629Z,1.36
2018-12-14T02:35:09.627Z,1.36
2018-12-14T02:36:09.557Z,1.38
2018-12-14T02:37:09.549Z,1.27
2018-12-14T02:38:09.561Z,1.39
2018-12-14T02:39:09.549Z,1.31
2018-12-14T02:40:09.646Z,1.27
2018-12-14T02:41:09.540Z,1.22
2018-12-14T02:42:09.588Z,1.25
2018-12-14T02:43:09.633Z,1.39
2018-12-14T02:44:09.582Z,1.21
2018-12-14T02:45:09.594Z,1.32
2018-12-14T02:46:09.636Z,1.3
2018-12-14T02:47:09.517Z,1.34
2018-12-14T02:48:09.610Z,1.2
2018-12-14T02:49:09.568Z,1.21
2018-12-14T02:50:09.570Z,1.22
2018-12-14T02:51:09.620Z,1.06
2018-12-14T02:52:09.535Z,1.21
2018-12-14T02:53:09.527Z,1.28
2018-12-14T02:54:09.586Z,1.28
2018-12-14T02:55:09.584Z,1.12
2018-12-14T02:56:09.634Z,1.25
2018-12-14T02:57:10.016Z,1.2
2018-12-14T02:58:09.679Z,1.27
2018-12-14T02:59:09.607Z,1.3
2018-12-14T03:00:09.583Z,1.24
2018-12-14T03:01:09.611Z,1.3
2018-12-14T03:02:09.644Z,1.2
2018-12-14T03:03:09.579Z,1.27
2018-12-14T03:04:09.561Z,1.12
2018-12-14T03:05:09.592Z,1
2018-12-14T03:06:09.633Z,1.14
2018-12-14T03:07:09.557Z,1.21
2018-12-14T03:08:09.551Z,1.2
2018-12-14T03:09:09.606Z,1.16
2018-12-14T03:10:09.569Z,1.04
2018-12-14T03:11:09.637Z,1.28
2018-12-14T03:12:09.669Z,1.16
2018-12-14T03:13:09.609Z,1.09
2018-12-14T03:14:09.575Z,1.2
2018-12-14T03:15:09.634Z,1.07
2018-12-14T03:16:09.701Z,1.16
2018-12-14T03:17:09.583Z,1.16
2018-12-14T03:18:10.480Z,1.16
2018-12-14T03:19:09.626Z,1.09
2018-12-14T03:20:09.639Z,1.04
2018-12-14T03:21:12.083Z,1
2018-12-14T03:22:09.691Z,0.96
2018-12-14T03:23:09.610Z,1.03
2018-12-14T03:24:09.592Z,1.04
2018-12-14T03:25:09.740Z,1.09
2018-12-14T03:26:09.655Z,1.09
2018-12-14T03:27:09.651Z,1.14
2018-12-14T03:28:09.595Z,1.07
2018-12-14T03:29:09.602Z,1.1
2018-12-14T03:30:09.624Z,1.12
2018-12-14T03:31:09.648Z,1.13
2018-12-14T03:32:09.621Z,1.18
2018-12-14T03:33:09.646Z,1.21
2018-12-14T03:34:09.612Z,1.16
2018-12-14T03:35:27.576Z,1.07
2018-12-14T03:36:09.619Z,1.18
2018-12-14T03:37:16.745Z,1.06
2018-12-14T03:38:09.613Z,1.07
2018-12-14T03:39:09.617Z,1.04
2018-12-14T03:40:09.648Z,1.12
2018-12-14T03:41:09.621Z,1.06
2018-12-14T03:42:09.626Z,0.94
2018-12-14T03:43:09.710Z,1.07
2018-12-14T03:44:09.630Z,1.1
2018-12-14T03:45:09.620Z,1.12
2018-12-14T03:46:09.656Z,1.09
2018-12-14T03:49:17.049Z,0.92
2018-12-14T03:49:29.207Z,1.03
2018-12-14T03:50:29.171Z,0.89
2018-12-14T03:51:29.162Z,0.95
2018-12-14T03:52:29.293Z,0.86
2018-12-14T03:53:29.159Z,0.91
2018-12-14T03:54:29.166Z,0.99
2018-12-14T03:55:29.351Z,0.95
2018-12-14T03:56:29.181Z,0.99
2018-12-14T03:57:29.224Z,0.95
2018-12-14T03:58:29.817Z,0.94
2018-12-14T03:59:29.146Z,0.92
2018-12-14T04:00:29.237Z,0.91
2018-12-14T04:01:29.285Z,0.89
2018-12-14T04:02:29.260Z,1.02
2018-12-14T04:03:29.258Z,0.99
2018-12-14T04:04:29.276Z,0.96
2018-12-14T04:05:29.287Z,0.84
2018-12-14T04:06:29.163Z,0.86
2018-12-14T04:07:29.167Z,0.88
2018-12-14T04:08:29.161Z,1.03
2018-12-14T04:09:29.252Z,0.99
2018-12-14T04:10:29.242Z,0.86
2018-12-14T04:11:29.175Z,0.94
2018-12-14T04:12:29.325Z,0.99
2018-12-14T04:13:29.193Z,1.02
2018-12-14T04:14:29.303Z,0.99
2018-12-14T04:15:29.275Z,0.99
2018-12-14T04:16:29.209Z,0.92
2018-12-14T04:17:30.346Z,1.04
2018-12-14T04:18:29.222Z,1.1
2018-12-14T04:19:29.263Z,1.12
2018-12-14T04:23:58.253Z,0.91
2018-12-14T04:24:57.870Z,1.14
2018-12-14T04:25:57.919Z,0.92
2018-12-14T04:26:57.851Z,0.96
2018-12-14T04:27:57.923Z,0.91
2018-12-14T04:28:57.948Z,1.03
2018-12-14T04:29:57.851Z,0.88
2018-12-14T04:30:57.908Z,0.91
2018-12-14T04:31:57.896Z,0.86
2018-12-14T04:32:57.914Z,0.89
2018-12-14T04:33:57.950Z,0.91
2018-12-14T04:34:57.922Z,0.89
2018-12-14T04:35:57.932Z,0.94
2018-12-14T04:36:57.987Z,0.88
2018-12-14T04:37:57.988Z,0.91
2018-12-14T04:38:57.855Z,1.02
2018-12-14T04:39:57.830Z,0.99
2018-12-14T04:40:57.912Z,0.96
2018-12-14T04:41:57.912Z,1.02
2018-12-14T04:42:57.923Z,0.88
2018-12-14T04:43:57.960Z,0.91
2018-12-14T04:44:57.973Z,0.94
2018-12-14T04:45:57.870Z,0.94
2018-12-14T04:46:58.006Z,0.88
2018-12-14T04:47:57.924Z,0.77
2018-12-14T04:48:57.923Z,0.85
2018-12-14T04:49:57.925Z,0.77
2018-12-14T04:50:58.044Z,0.91
2018-12-14T04:51:57.979Z,0.94
2018-12-14T04:52:57.931Z,0.84
2018-12-14T04:53:57.944Z,0.94
2018-12-14T04:54:58.061Z,0.84
2018-12-14T04:55:57.906Z,0.89
2018-12-14T04:56:58.043Z,0.92
2018-12-14T04:57:57.977Z,0.92
2018-12-14T04:58:57.915Z,0.86
2018-12-14T04:59:57.992Z,0.94
2018-12-14T05:00:57.968Z,1
2018-12-14T05:01:57.892Z,1
2018-12-14T05:02:57.953Z,0.92
2018-12-14T05:03:57.919Z,0.92
2018-12-14T05:04:58.029Z,1.02
2018-12-14T05:05:57.915Z,0.88
2018-12-14T05:06:57.986Z,0.96
2018-12-14T05:07:57.933Z,0.82
2018-12-14T05:08:57.950Z,0.99
2018-12-14T05:09:57.939Z,0.88
2018-12-14T05:10:57.904Z,1.03
2018-12-14T05:11:57.913Z,1.07
2018-12-14T05:13:01.773Z,0.96
2018-12-14T05:13:57.931Z,1.04
2018-12-14T05:14:57.928Z,1.02
2018-12-14T05:15:57.942Z,0.95
2018-12-14T05:16:58.441Z,0.99
2018-12-14T05:17:59.108Z,0.94
2018-12-14T05:18:57.914Z,0.91
2018-12-14T05:19:57.897Z,1
2018-12-14T05:20:57.926Z,0.82
2018-12-14T05:21:57.931Z,0.86
2018-12-14T05:22:57.910Z,0.88
2018-12-14T05:23:57.945Z,1.03
2018-12-14T05:24:57.982Z,0.92
2018-12-14T05:25:57.959Z,0.94
2018-12-14T05:26:57.994Z,1.04
2018-12-14T05:27:57.910Z,1.03
2018-12-14T05:28:58.018Z,1.09
2018-12-14T05:29:57.958Z,1.06
2018-12-14T05:30:57.932Z,1.12
2018-12-14T05:31:57.999Z,1.07
2018-12-14T05:32:57.953Z,1.02
2018-12-14T05:33:57.980Z,1.06
2018-12-14T05:34:57.957Z,1.03
2018-12-14T05:35:57.928Z,1.03
2018-12-14T05:36:57.939Z,1.03
2018-12-14T05:37:57.976Z,0.92
2018-12-14T05:38:57.943Z,0.86
2018-12-14T05:39:57.970Z,0.84
2018-12-14T05:40:57.962Z,0.95
2018-12-14T05:41:57.930Z,0.96
2018-12-14T05:43:02.470Z,0.86
2018-12-14T05:43:57.974Z,0.96
2018-12-14T05:44:57.977Z,0.96
2018-12-14T05:45:57.968Z,0.91
2018-12-14T05:46:58.004Z,0.91
2018-12-14T05:47:58.014Z,0.85
2018-12-14T05:48:57.911Z,0.99
2018-12-14T05:49:58.003Z,0.99
2018-12-14T05:50:58.012Z,1
2018-12-14T05:51:58.033Z,0.92
2018-12-14T05:52:58.106Z,1.03
2018-12-14T05:55:17.794Z,0.95
2018-12-14T05:56:17.746Z,0.95
2018-12-14T05:57:17.745Z,0.96
2018-12-14T05:58:17.805Z,0.89
2018-12-14T05:59:17.740Z,0.92
2018-12-14T06:00:17.803Z,0.89
2018-12-14T06:01:17.725Z,0.88
2018-12-14T06:02:17.796Z,0.81
2018-12-14T06:03:17.809Z,0.89
2018-12-14T06:04:17.682Z,0.74
2018-12-14T06:05:17.755Z,0.77
2018-12-14T06:06:17.737Z,0.77
2018-12-14T06:07:17.747Z,0.78
2018-12-14T06:08:17.767Z,0.91
2018-12-14T06:09:17.862Z,0.89
2018-12-14T06:10:17.771Z,0.81
2018-12-14T06:11:17.770Z,0.78
2018-12-14T06:12:17.703Z,0.84
2018-12-14T06:13:18.051Z,0.95
2018-12-14T06:14:17.941Z,0.89
2018-12-14T06:15:17.794Z,0.94
2018-12-14T06:16:17.807Z,0.89
2018-12-14T06:17:17.845Z,0.82
2018-12-14T06:18:17.800Z,0.84
2018-12-14T06:19:17.784Z,0.91
2018-12-14T06:20:17.772Z,0.82
2018-12-14T06:21:17.820Z,0.92
2018-12-14T06:22:17.755Z,0.84
2018-12-14T06:23:17.864Z,0.84
2018-12-14T06:24:17.797Z,0.81
2018-12-14T06:25:17.853Z,0.74
2018-12-14T06:26:17.917Z,0.86
2018-12-14T06:27:17.927Z,0.67
2018-12-14T06:28:17.928Z,0.78
2018-12-14T06:29:17.877Z,0.64
2018-12-14T06:30:17.879Z,0.71
2018-12-14T06:31:17.899Z,0.84
2018-12-14T06:32:18.041Z,0.77
2018-12-14T06:33:17.840Z,0.73
2018-12-14T06:34:22.444Z,0.71
2018-12-14T06:35:17.878Z,0.76
2018-12-14T06:36:17.882Z,0.66
2018-12-14T06:37:18.060Z,0.76
2018-12-14T06:38:17.894Z,0.71
2018-12-14T06:39:17.835Z,0.61
2018-12-14T06:40:17.877Z,0.74
2018-12-14T06:41:18.529Z,0.7
2018-12-14T06:42:17.873Z,0.78
2018-12-14T06:43:21.242Z,0.82
2018-12-14T06:44:17.909Z,0.64
2018-12-14T06:45:17.897Z,0.7
2018-12-14T06:46:17.813Z,0.64
2018-12-14T06:47:17.822Z,0.68
2018-12-14T06:48:17.884Z,0.77
2018-12-14T06:49:17.860Z,0.77
2018-12-14T06:50:17.869Z,0.71
2018-12-14T06:51:17.831Z,0.82
2018-12-14T06:52:17.881Z,0.7
2018-12-14T06:53:17.864Z,0.59
2018-12-14T06:54:17.794Z,0.67
2018-12-14T06:55:17.947Z,0.58
2018-12-14T06:56:17.855Z,0.56
2018-12-14T06:57:17.915Z,0.58
2018-12-14T06:58:17.874Z,0.63
2018-12-14T06:59:17.825Z,0.51
2018-12-14T07:00:18.193Z,0.52
2018-12-14T07:01:17.886Z,0.51
2018-12-14T07:02:17.888Z,0.51
2018-12-14T07:03:17.952Z,0.55
2018-12-14T07:04:17.864Z,0.58
2018-12-14T07:05:17.937Z,0.55
2018-12-14T07:06:17.914Z,0.59
2018-12-14T07:07:17.921Z,0.48
2018-12-14T07:08:17.992Z,0.45
2018-12-14T07:09:17.934Z,0.59
2018-12-14T07:10:17.917Z,0.49
2018-12-14T07:11:17.864Z,0.61
2018-12-14T07:12:17.888Z,0.59
2018-12-14T07:13:21.783Z,0.56
2018-12-14T07:14:17.898Z,0.4
2018-12-14T07:15:17.912Z,0.26
2018-12-14T07:16:17.934Z,0.23
2018-12-14T07:17:17.955Z,0.39
2018-12-14T07:18:17.924Z,0.27
2018-12-14T07:19:17.863Z,0.24
2018-12-14T07:20:17.942Z,0.27
2018-12-14T07:21:17.885Z,0.4
2018-12-14T07:22:17.878Z,0.42
2018-12-14T07:23:17.881Z,0.29
2018-12-14T07:24:17.855Z,0.33
2018-12-14T07:25:17.926Z,0.33
2018-12-14T07:26:17.859Z,0.31
2018-12-14T07:27:17.967Z,0.27
2018-12-14T07:28:18.722Z,0.26
2018-12-14T07:29:17.892Z,0.42
2018-12-14T07:30:17.868Z,0.44
2018-12-14T07:31:17.909Z,0.52
2018-12-14T07:32:17.912Z,0.36
2018-12-14T07:33:17.877Z,0.36
2018-12-14T07:34:18.026Z,0.4
2018-12-14T07:35:18.024Z,0.34
2018-12-14T07:36:17.906Z,0.39
2018-12-14T07:37:17.913Z,0.31
2018-12-14T07:38:17.983Z,0.42
2018-12-14T07:39:17.961Z,0.42
2018-12-14T07:40:18.037Z,0.39
2018-12-14T07:41:17.902Z,0.59
2018-12-14T07:42:18.013Z,0.44
2018-12-14T07:43:17.937Z,0.45
2018-12-14T07:44:18.037Z,0.52
2018-12-14T07:45:17.883Z,0.45
2018-12-14T07:46:17.935Z,0.56
2018-12-14T07:47:17.939Z,0.59
2018-12-14T07:48:17.917Z,0.51
2018-12-14T07:49:17.890Z,0.42
2018-12-14T07:50:17.856Z,0.55
2018-12-14T07:51:18.210Z,0.59
2018-12-14T07:52:17.912Z,0.47
2018-12-14T07:53:17.929Z,0.56
2018-12-14T07:54:18.069Z,0.56
2018-12-14T07:55:17.961Z,0.61
2018-12-14T07:56:17.972Z,0.47
2018-12-14T07:57:18.252Z,0.52
2018-12-14T07:58:17.939Z,0.55
2018-12-14T07:59:17.946Z,0.55
2018-12-14T08:00:17.963Z,0.47
2018-12-14T08:01:18.004Z,0.45
2018-12-14T08:02:17.946Z,0.27
2018-12-14T08:03:17.941Z,0.3
2018-12-14T08:04:17.975Z,0.45
2018-12-14T08:05:17.930Z,0.4
2018-12-14T08:06:18.009Z,0.47
2018-12-14T08:07:18.047Z,0.42
2018-12-14T08:08:18.307Z,0.44
2018-12-14T08:09:17.952Z,0.55
2018-12-14T08:10:18.113Z,0.56
2018-12-14T08:11:17.935Z,0.39
2018-12-14T08:12:18.457Z,0.27
2018-12-14T08:13:19.414Z,0.33
2018-12-14T08:14:17.986Z,0.47
2018-12-14T08:15:18.115Z,0.23
2018-12-14T08:16:17.997Z,0.44
2018-12-14T08:17:18.038Z,0.45
2018-12-14T08:18:18.011Z,0.29
2018-12-14T08:19:17.989Z,0.2
2018-12-14T08:20:22.867Z,0.33
2018-12-14T08:21:17.959Z,0.31
2018-12-14T08:22:18.131Z,0.37
2018-12-14T08:23:17.949Z,0.44
2018-12-14T08:24:18.028Z,0.37
2018-12-14T08:25:18.059Z,0.48
2018-12-14T08:26:18.069Z,0.42
2018-12-14T08:27:17.997Z,0.4
2018-12-14T08:28:18.387Z,0.52
2018-12-14T08:29:18.043Z,0.61
2018-12-14T08:30:18.017Z,0.56
2018-12-14T08:31:18.014Z,0.49
2018-12-14T08:32:18.049Z,0.51
2018-12-14T08:33:18.066Z,0.64
2018-12-14T08:34:18.036Z,0.67
2018-12-14T08:35:18.341Z,0.77
2018-12-14T08:36:17.974Z,0.76
2018-12-14T08:37:18.006Z,0.84
2018-12-14T08:38:18.043Z,0.78
2018-12-14T08:39:18.049Z,0.86
2018-12-14T08:40:17.999Z,0.82
2018-12-14T08:41:18.032Z,0.78
2018-12-14T08:42:17.968Z,0.81
2018-12-14T08:43:18.135Z,0.89
2018-12-14T08:44:18.117Z,0.77
2018-12-14T08:45:18.093Z,0.77
2018-12-14T08:46:18.066Z,0.86
2018-12-14T08:47:18.007Z,0.78
2018-12-14T08:48:18.024Z,0.95
2018-12-14T08:49:17.970Z,0.78
2018-12-14T08:50:17.948Z,0.88
2018-12-14T08:51:18.025Z,0.88
2018-12-14T08:52:17.999Z,0.96
2018-12-14T08:53:18.068Z,0.95
2018-12-14T08:54:18.119Z,1
2018-12-14T08:55:18.052Z,1
2018-12-14T08:56:18.032Z,0.96
2018-12-14T08:57:17.980Z,1.03
2018-12-14T08:58:18.042Z,1.04
2018-12-14T08:59:17.979Z,1.1
2018-12-14T09:00:18.000Z,1.18
2018-12-14T09:01:18.027Z,1.24
2018-12-14T09:02:18.015Z,1.13
2018-12-14T09:03:18.080Z,1.27
2018-12-14T09:04:20.531Z,1.24
2018-12-14T09:05:18.051Z,1.22
2018-12-14T09:06:18.056Z,1.14
2018-12-14T09:07:24.370Z,1.27
2018-12-14T09:08:18.056Z,1.21
2018-12-14T09:09:18.055Z,1.31
2018-12-14T09:10:34.637Z,1.39
2018-12-14T09:11:34.746Z,1.16
2018-12-14T09:12:34.670Z,1.32
2018-12-14T09:13:34.667Z,1.31
2018-12-14T09:14:34.683Z,1.36
2018-12-14T09:15:34.650Z,1.28
2018-12-14T09:16:34.652Z,1.3
2018-12-14T09:17:34.684Z,1.24
2018-12-14T09:18:34.663Z,1.31
2018-12-14T09:19:34.612Z,1.32
2018-12-14T09:20:34.661Z,1.43
2018-12-14T09:21:34.609Z,1.4
2018-12-14T09:22:34.689Z,1.48
2018-12-14T09:23:34.757Z,1.45
2018-12-14T09:24:34.763Z,1.39
2018-12-14T09:25:34.695Z,1.46
2018-12-14T09:26:34.746Z,1.53
2018-12-14T09:27:34.690Z,1.53
2018-12-14T09:28:34.654Z,1.49
2018-12-14T09:29:34.763Z,1.43
2018-12-14T09:30:34.710Z,1.5
2018-12-14T09:31:34.881Z,1.49
2018-12-14T09:32:34.721Z,1.45
2018-12-14T09:33:34.616Z,1.58
2018-12-14T09:34:34.728Z,1.56
2018-12-14T09:35:34.755Z,1.4
2018-12-14T09:36:34.620Z,1.48
2018-12-14T09:37:34.672Z,1.38
2018-12-14T09:38:34.691Z,1.6
2018-12-14T09:39:34.732Z,1.64
2018-12-14T09:40:34.759Z,1.61
2018-12-14T09:41:34.655Z,1.48
2018-12-14T09:42:34.656Z,1.57
2018-12-14T09:43:34.734Z,1.67
2018-12-14T09:44:34.664Z,1.81
2018-12-14T09:45:34.739Z,1.84
2018-12-14T09:46:39.977Z,1.79
2018-12-14T09:47:34.762Z,1.88
2018-12-14T09:48:34.769Z,1.78
2018-12-14T09:49:34.731Z,1.84
2018-12-14T09:50:34.807Z,2.04
2018-12-14T09:51:34.776Z,1.93
2018-12-14T09:52:34.658Z,2.04
2018-12-14T09:53:34.719Z,2.1
2018-12-14T09:54:34.861Z,2.07
2018-12-14T09:55:34.699Z,2.15
2018-12-14T09:56:34.743Z,2.12
2018-12-14T09:57:34.762Z,2.05
2018-12-14T09:58:34.750Z,1.89
2018-12-14T09:59:34.893Z,1.98
2018-12-14T10:00:34.824Z,2.1
2018-12-14T10:01:34.749Z,2.15
2018-12-14T10:02:35.230Z,2.16
2018-12-14T10:03:34.700Z,2.26
2018-12-14T10:04:34.718Z,2.39
2018-12-14T10:05:34.822Z,2.32
2018-12-14T10:06:34.819Z,2.32
2018-12-14T10:07:34.752Z,2.23
2018-12-14T10:08:34.752Z,2.4
2018-12-14T10:09:34.833Z,2.47
2018-12-14T10:10:34.761Z,2.41
2018-12-14T10:11:34.736Z,2.34
2018-12-14T10:12:34.948Z,2.21
2018-12-14T10:13:34.785Z,2.23
2018-12-14T10:14:34.789Z,2.32
2018-12-14T10:15:34.903Z,2.43
2018-12-14T10:16:34.757Z,2.37
2018-12-14T10:17:34.679Z,2.41
2018-12-14T10:18:34.765Z,2.37
2018-12-14T10:19:34.822Z,2.19
2018-12-14T10:20:34.764Z,2.1
2018-12-14T10:21:34.784Z,2.25
2018-12-14T10:22:34.753Z,2.34
2018-12-14T10:23:34.748Z,2.15
2018-12-14T10:24:35.485Z,2.22
2018-12-14T10:25:34.821Z,2.23
2018-12-14T10:26:34.805Z,2.19
2018-12-14T10:27:34.787Z,2.34
2018-12-14T10:28:34.747Z,2.39
2018-12-14T10:29:34.970Z,2.21
2018-12-14T10:30:34.901Z,1.92
2018-12-14T10:31:34.725Z,2.07
2018-12-14T10:32:34.751Z,2.1
2018-12-14T10:33:34.776Z,2.01
2018-12-14T10:34:34.758Z,1.89
2018-12-14T10:35:34.916Z,2.01
2018-12-14T10:36:34.783Z,2.07
2018-12-14T10:37:34.741Z,2.01
2018-12-14T10:38:34.714Z,2.05
2018-12-14T10:39:34.828Z,2.08
2018-12-14T10:40:34.813Z,2.15
2018-12-14T10:41:34.802Z,2.07
2018-12-14T10:42:34.747Z,2.18
2018-12-14T10:43:34.742Z,2.05
2018-12-14T10:44:35.936Z,2.12
2018-12-14T10:45:34.749Z,2.18
2018-12-14T10:53:01.710Z,2.12
2018-12-14T10:53:13.967Z,2.08
2018-12-14T10:54:14.003Z,2.16
2018-12-14T10:55:14.126Z,2.08
2018-12-14T10:56:14.016Z,2.12
2018-12-14T10:57:19.100Z,1.89
2018-12-14T10:58:13.956Z,2.05
2018-12-14T10:59:13.980Z,1.93
2018-12-14T11:00:14.006Z,2.05
2018-12-14T11:01:17.260Z,2.07
2018-12-14T11:02:13.958Z,2.08
2018-12-14T11:03:13.988Z,2.03
2018-12-14T11:04:14.054Z,2.07
2018-12-14T11:05:14.034Z,2.12
2018-12-14T11:06:13.985Z,2.08
2018-12-14T11:07:14.015Z,2.05
2018-12-14T11:08:14.074Z,2.12
2018-12-14T11:09:13.988Z,2.1
2018-12-14T11:10:13.986Z,2.19
2018-12-14T11:11:13.957Z,2.23
2018-12-14T11:12:14.109Z,2.16
2018-12-14T11:13:13.985Z,2.25
2018-12-14T11:14:19.397Z,2.22
2018-12-14T11:15:14.029Z,2.22
2018-12-14T11:16:14.004Z,2.22
2018-12-14T11:17:14.000Z,2.18
2018-12-14T11:18:14.026Z,2.18
2018-12-14T11:19:14.026Z,2.23
2018-12-14T11:20:14.072Z,2.23
2018-12-14T11:21:14.038Z,2.18
2018-12-14T11:22:14.021Z,2.16
2018-12-14T11:23:14.075Z,2.16
2018-12-14T11:24:13.996Z,2.21
2018-12-14T11:25:14.047Z,2.22
2018-12-14T11:26:14.000Z,2.21
2018-12-14T11:27:14.018Z,2.28
2018-12-14T11:28:14.011Z,2.21
2018-12-14T11:29:13.997Z,2.15
2018-12-14T11:30:14.079Z,2.14
2018-12-14T11:31:14.865Z,2.22
2018-12-14T11:32:18.137Z,2.19
2018-12-14T11:33:16.088Z,2.22
2018-12-14T11:34:15.190Z,2.19
2018-12-14T11:35:14.075Z,2.3
2018-12-14T11:36:14.042Z,2.19
2018-12-14T11:37:14.013Z,2.18
2018-12-14T11:38:14.156Z,2.16
2018-12-14T11:39:14.011Z,2.19
2018-12-14T11:40:14.137Z,2.23
2018-12-14T11:41:18.394Z,2.21
2018-12-14T11:42:14.116Z,2.28
2018-12-14T11:43:14.022Z,2.25
2018-12-14T11:44:20.258Z,2.26
2018-12-14T11:45:14.076Z,2.23
2018-12-14T11:46:14.845Z,2.18
2018-12-14T11:47:18.111Z,2.25
2018-12-14T11:48:14.086Z,2.16
2018-12-14T11:49:14.093Z,2.23
2018-12-14T11:50:14.146Z,2.16
2018-12-14T11:51:14.101Z,2.22
2018-12-14T11:52:14.067Z,2.23
2018-12-14T11:53:14.064Z,2.22
2018-12-14T11:54:14.023Z,2.18
2018-12-14T11:55:14.705Z,2.1
2018-12-14T11:56:14.071Z,2.14
2018-12-14T11:57:14.077Z,2.1
2018-12-14T11:58:14.062Z,2.14
2018-12-14T11:59:15.082Z,2.1
2018-12-14T12:00:14.093Z,2.18
2018-12-14T12:01:14.112Z,2.19
2018-12-14T12:02:15.543Z,2.07
2018-12-14T12:03:14.084Z,2.12
2018-12-14T12:04:14.089Z,2.1
2018-12-14T12:05:14.201Z,2.15
2018-12-14T12:06:14.060Z,2.01
2018-12-14T12:07:14.098Z,1.85
2018-12-14T12:08:14.034Z,2.01
2018-12-14T12:09:14.061Z,2.05
2018-12-14T12:10:14.052Z,2.12
2018-12-14T12:11:14.119Z,2.1
2018-12-14T12:12:14.142Z,2.04
2018-12-14T12:13:14.139Z,2.16
2018-12-14T12:14:14.088Z,1.93
2018-12-14T12:15:15.364Z,2.12
2018-12-14T12:16:14.120Z,2.1
2018-12-14T12:17:14.144Z,2.14
2018-12-14T12:18:14.152Z,2.08
2018-12-14T12:19:14.077Z,2.08
2018-12-14T12:20:14.098Z,2.08
2018-12-14T12:21:14.141Z,2.05
2018-12-14T12:22:14.109Z,2.04
2018-12-14T12:23:14.136Z,2.14
2018-12-14T12:24:14.197Z,2.01
2018-12-14T12:25:14.099Z,2.05
2018-12-14T12:26:14.115Z,2.01
2018-12-14T12:27:14.109Z,1.92
2018-12-14T12:28:14.191Z,1.95
2018-12-14T12:29:14.155Z,2.14
2018-12-14T12:30:14.192Z,2.08
2018-12-14T12:31:14.167Z,1.86
2018-12-14T12:32:14.173Z,2.14
2018-12-14T12:33:14.115Z,2.07
2018-12-14T12:34:14.117Z,2.07
2018-12-14T12:35:14.366Z,2.03
2018-12-14T12:36:14.136Z,2
2018-12-14T12:37:14.485Z,2.05
2018-12-14T12:38:14.214Z,2.08
2018-12-14T12:39:14.219Z,2.14
2018-12-14T12:40:14.230Z,2.19
2018-12-14T12:41:14.167Z,2.12
2018-12-14T12:42:14.247Z,2.04
2018-12-14T12:43:14.115Z,2.03
2018-12-14T12:44:14.182Z,2.12
2018-12-14T12:45:14.191Z,2.08
2018-12-14T12:46:14.136Z,2.08
2018-12-14T12:47:14.311Z,2.12
2018-12-14T12:48:14.258Z,2.05
2018-12-14T12:49:14.186Z,2.08
2018-12-14T12:50:14.630Z,2.01
2018-12-14T12:51:14.166Z,1.88
2018-12-14T12:52:14.235Z,1.97
2018-12-14T12:53:14.389Z,2.05
2018-12-14T12:54:14.216Z,2.07
2018-12-14T12:55:14.283Z,2.12
2018-12-14T12:56:14.205Z,2.22
2018-12-14T12:57:14.137Z,2.15
2018-12-14T12:58:14.217Z,2.1
2018-12-14T12:59:14.219Z,2.1
2018-12-14T13:00:14.610Z,2.18
2018-12-14T13:01:14.211Z,2.19
2018-12-14T13:02:14.238Z,2.1
2018-12-14T13:03:14.175Z,2.23
2018-12-14T13:04:14.181Z,2.25
2018-12-14T13:05:14.260Z,2.19
2018-12-14T13:06:14.192Z,2.19
2018-12-14T13:07:14.156Z,2.21
2018-12-14T13:08:14.718Z,2.18
2018-12-14T13:09:16.742Z,2.15
2018-12-14T13:10:14.156Z,2.25
2018-12-14T13:11:15.513Z,2.25
2018-12-14T13:12:14.438Z,2.08
2018-12-14T13:13:14.141Z,2.1
2018-12-14T13:14:14.175Z,2.05
2018-12-14T13:15:14.224Z,2.12
2018-12-14T13:16:14.133Z,2.01
2018-12-14T13:17:14.215Z,1.98
2018-12-14T13:18:14.169Z,2.05
2018-12-14T13:19:15.419Z,2
2018-12-14T13:20:14.324Z,2.01
2018-12-14T13:21:14.174Z,2.03
2018-12-14T13:22:14.183Z,2.15
2018-12-14T13:23:14.242Z,2.05
2018-12-14T13:24:14.165Z,1.92
2018-12-14T13:25:14.202Z,1.88
2018-12-14T13:26:14.536Z,2.01
2018-12-14T13:27:20.083Z,1.95
2018-12-14T13:28:14.205Z,1.92
2018-12-14T13:29:14.199Z,1.92
2018-12-14T13:30:14.185Z,1.97
2018-12-14T13:31:14.194Z,1.84
2018-12-14T13:32:14.232Z,1.86
2018-12-14T13:33:14.322Z,1.88
2018-12-14T13:34:14.722Z,2.05
2018-12-14T13:35:14.317Z,2.04
2018-12-14T13:36:14.227Z,1.97
2018-12-14T13:37:14.272Z,2.14
2018-12-14T13:38:14.314Z,1.93
2018-12-14T13:39:14.256Z,1.88
2018-12-14T13:40:14.336Z,1.86
2018-12-14T13:41:14.243Z,1.88
2018-12-14T13:42:14.302Z,1.79
2018-12-14T13:43:14.191Z,1.88
2018-12-14T13:44:14.241Z,1.95
2018-12-14T13:45:14.484Z,1.84
2018-12-14T13:46:14.224Z,1.84
2018-12-14T13:47:14.296Z,1.93